createdAt,value
2019-04-04T00:00:50.088Z,9.32
2019-04-04T00:02:54.807Z,9.31
2019-04-04T00:04:58.718Z,9.30
2019-04-04T00:07:03.471Z,9.30
2019-04-04T00:09:10.402Z,9.30
2019-04-04T00:11:14.147Z,9.29
2019-04-04T00:13:17.930Z,9.31
2019-04-04T00:15:21.675Z,9.33
2019-04-04T00:17:25.422Z,9.35
2019-04-04T00:19:30.630Z,9.34
2019-04-04T00:21:34.632Z,9.32
2019-04-04T00:23:44.535Z,9.32
2019-04-04T00:25:48.272Z,9.34
2019-04-04T00:27:54.087Z,9.36
2019-04-04T00:29:57.843Z,9.37
2019-04-04T00:32:02.699Z,9.37
2019-04-04T00:34:06.540Z,9.35
2019-04-04T00:36:10.284Z,9.40
2019-04-04T00:38:14.041Z,9.43
2019-04-04T00:40:17.773Z,9.44
2019-04-04T00:42:24.534Z,9.45
2019-04-04T00:44:29.269Z,9.46
2019-04-04T00:46:33.173Z,9.49
2019-04-04T00:48:38.940Z,9.49
2019-04-04T00:50:43.964Z,9.49
2019-04-04T00:52:47.753Z,9.51
2019-04-04T00:54:51.576Z,9.57
2019-04-04T00:56:55.289Z,9.61
2019-04-04T00:58:59.028Z,9.62
2019-04-04T01:01:02.832Z,9.64
2019-04-04T01:03:07.611Z,9.67
2019-04-04T01:05:11.697Z,9.66
2019-04-04T01:07:15.416Z,9.64
2019-04-04T01:09:19.144Z,9.58
2019-04-04T01:11:22.882Z,9.54
2019-04-04T01:13:27.835Z,9.51
2019-04-04T01:15:31.890Z,9.51
2019-04-04T01:17:37.813Z,9.51
2019-04-04T01:19:41.561Z,9.51
2019-04-04T01:21:45.316Z,9.51
2019-04-04T01:23:50.146Z,9.52
2019-04-04T01:25:53.897Z,9.52
2019-04-04T01:27:57.646Z,9.49
2019-04-04T01:30:01.481Z,9.48
2019-04-04T01:32:06.198Z,9.45
2019-04-04T01:34:10.022Z,9.45
2019-04-04T01:36:13.772Z,9.41
2019-04-04T01:38:18.579Z,9.41
2019-04-04T01:40:23.334Z,9.34
2019-04-04T01:42:27.060Z,9.31
2019-04-04T01:44:31.876Z,9.33
2019-04-04T01:46:35.632Z,9.37
2019-04-04T01:48:44.526Z,9.38
2019-04-04T01:50:48.357Z,9.36
2019-04-04T01:52:54.155Z,9.30
2019-04-04T01:54:57.943Z,9.28
2019-04-04T01:57:01.659Z,9.29
2019-04-04T01:59:05.723Z,9.31
2019-04-04T02:01:09.468Z,9.34
2019-04-04T02:03:13.212Z,9.35
2019-04-04T02:05:17.046Z,9.35
2019-04-04T02:07:20.779Z,9.36
2019-04-04T02:09:25.611Z,9.37
2019-04-04T02:11:30.428Z,9.37
2019-04-04T02:13:34.248Z,9.36
2019-04-04T02:15:39.019Z,9.34
2019-04-04T02:17:45.973Z,9.33
2019-04-04T02:19:49.778Z,9.33
2019-04-04T02:21:53.540Z,9.31
2019-04-04T02:23:57.298Z,9.30
2019-04-04T02:26:05.257Z,9.32
2019-04-04T02:28:08.865Z,9.35
2019-04-04T02:30:16.161Z,9.31
2019-04-04T02:32:19.857Z,9.30
2019-04-04T02:34:23.581Z,9.29
2019-04-04T02:36:28.439Z,9.25
2019-04-04T02:38:32.272Z,9.26
2019-04-04T02:40:36.148Z,9.27
2019-04-04T02:42:40.616Z,9.29
2019-04-04T02:44:44.426Z,9.28
2019-04-04T02:46:48.248Z,9.27
2019-04-04T02:48:53.576Z,9.26
2019-04-04T02:50:58.533Z,9.25
2019-04-04T02:53:03.251Z,9.23
2019-04-04T02:55:07.034Z,9.22
2019-04-04T02:57:11.809Z,9.20
2019-04-04T02:59:20.140Z,9.12
2019-04-04T03:01:21.030Z,9.14
2019-04-04T03:03:24.841Z,9.15
2019-04-04T03:05:34.583Z,9.19
2019-04-04T03:07:38.561Z,9.20
2019-04-04T03:09:43.704Z,9.19
2019-04-04T03:11:47.808Z,9.18
2019-04-04T03:13:51.683Z,9.18
2019-04-04T03:15:56.741Z,9.19
2019-04-04T03:18:04.057Z,9.19
2019-04-04T03:20:06.478Z,9.15
2019-04-04T03:22:10.229Z,9.13
2019-04-04T03:24:13.989Z,9.13
2019-04-04T03:26:23.618Z,9.09
2019-04-04T03:28:31.469Z,9.05
2019-04-04T03:30:34.000Z,9.08
2019-04-04T03:32:37.766Z,9.08
2019-04-04T03:34:47.998Z,9.07
2019-04-04T03:36:47.160Z,9.07
2019-04-04T03:38:50.909Z,9.04
2019-04-04T03:40:57.808Z,9.02
2019-04-04T03:43:00.203Z,9.03
2019-04-04T03:45:04.303Z,9.06
2019-04-04T03:47:10.431Z,9.07
2019-04-04T03:49:14.570Z,9.06
2019-04-04T03:51:18.325Z,9.07
2019-04-04T03:53:22.709Z,9.06
2019-04-04T03:55:28.020Z,9.07
2019-04-04T03:57:33.020Z,9.03
2019-04-04T03:59:36.753Z,9.04
2019-04-04T04:01:45.517Z,9.05
2019-04-04T04:03:46.062Z,9.03
2019-04-04T04:05:49.805Z,9.03
2019-04-04T04:07:53.562Z,9.06
2019-04-04T04:09:59.801Z,9.04
2019-04-04T04:12:02.868Z,9.03
2019-04-04T04:14:06.610Z,8.99
2019-04-04T04:16:10.472Z,8.99
2019-04-04T04:18:14.214Z,9.02
2019-04-04T04:20:23.767Z,9.03
2019-04-04T04:22:29.771Z,9.06
2019-04-04T04:24:34.481Z,9.09
2019-04-04T04:26:40.959Z,9.07
2019-04-04T04:28:43.703Z,9.07
2019-04-04T04:30:47.528Z,9.06
2019-04-04T04:32:55.828Z,9.02
2019-04-04T04:34:56.836Z,8.99
2019-04-04T04:37:00.601Z,8.95
2019-04-04T04:39:06.398Z,8.92
2019-04-04T04:41:11.126Z,8.88
2019-04-04T04:43:15.799Z,8.84
2019-04-04T04:45:19.911Z,8.80
2019-04-04T04:47:24.170Z,8.77
2019-04-04T04:49:27.939Z,8.73
2019-04-04T04:51:31.669Z,8.73
2019-04-04T04:53:35.434Z,8.74
2019-04-04T04:55:39.183Z,8.78
2019-04-04T04:57:42.918Z,8.83
2019-04-04T04:59:46.747Z,8.87
2019-04-04T05:01:51.368Z,8.89
2019-04-04T05:03:56.569Z,8.88
2019-04-04T05:06:02.624Z,8.85
2019-04-04T05:08:09.646Z,8.80
2019-04-04T05:10:14.955Z,8.75
2019-04-04T05:12:21.638Z,8.74
2019-04-04T05:14:24.943Z,8.76
2019-04-04T05:16:28.700Z,8.79
2019-04-04T05:18:34.462Z,8.84
2019-04-04T05:20:40.250Z,8.89
2019-04-04T05:22:44.028Z,8.93
2019-04-04T05:25:07.042Z,8.91
2019-04-04T05:26:54.290Z,8.87
2019-04-04T05:28:58.033Z,8.81
2019-04-04T05:31:01.866Z,8.75
2019-04-04T05:33:05.606Z,8.74
2019-04-04T05:35:10.466Z,8.72
2019-04-04T05:37:14.275Z,8.73
2019-04-04T05:39:18.779Z,8.75
2019-04-04T05:41:22.606Z,8.81
2019-04-04T05:43:26.355Z,8.83
2019-04-04T05:45:30.105Z,8.84
2019-04-04T05:47:35.899Z,8.82
2019-04-04T05:49:39.655Z,8.80
2019-04-04T05:51:43.399Z,8.79
2019-04-04T05:53:47.163Z,8.80
2019-04-04T05:55:50.935Z,8.80
2019-04-04T05:57:54.706Z,8.83
2019-04-04T05:59:58.430Z,8.82
2019-04-04T06:02:02.185Z,8.82
2019-04-04T06:04:06.036Z,8.85
2019-04-04T06:06:10.670Z,8.89
2019-04-04T06:08:14.521Z,8.88
2019-04-04T06:10:19.090Z,8.89
2019-04-04T06:12:32.932Z,8.90
2019-04-04T06:14:36.699Z,8.95
2019-04-04T06:16:40.439Z,9.00
2019-04-04T06:18:44.179Z,9.04
2019-04-04T06:20:50.264Z,9.08
2019-04-04T06:22:56.061Z,9.13
2019-04-04T06:25:06.361Z,9.15
2019-04-04T06:27:10.122Z,9.19
2019-04-04T06:29:17.368Z,9.22
2019-04-04T06:31:21.472Z,9.25
2019-04-04T06:33:25.275Z,9.26
2019-04-04T06:35:31.099Z,9.32
2019-04-04T06:37:34.856Z,9.37
2019-04-04T06:39:39.652Z,9.39
2019-04-04T06:41:43.486Z,9.42
2019-04-04T06:43:48.326Z,9.48
2019-04-04T06:45:52.071Z,9.52
2019-04-04T06:47:57.603Z,9.57
2019-04-04T06:50:01.298Z,9.65
2019-04-04T06:52:06.083Z,9.74
2019-04-04T06:54:10.828Z,9.84
2019-04-04T06:56:14.534Z,9.89
2019-04-04T06:58:18.287Z,9.95
2019-04-04T07:00:22.021Z,10.01
2019-04-04T07:02:26.841Z,10.14
2019-04-04T07:04:31.880Z,10.31
2019-04-04T07:06:36.203Z,10.42
2019-04-04T07:08:39.946Z,10.52
2019-04-04T07:10:57.784Z,10.69
2019-04-04T07:13:14.524Z,10.88
2019-04-04T07:15:03.797Z,11.12
2019-04-04T07:17:08.828Z,11.52
2019-04-04T07:19:19.103Z,11.64
2019-04-04T07:21:22.863Z,11.64
2019-04-04T07:23:28.631Z,11.67
2019-04-04T07:25:32.302Z,11.65
2019-04-04T07:27:36.046Z,11.64
2019-04-04T07:29:39.793Z,11.76
2019-04-04T07:31:43.533Z,11.96
2019-04-04T07:33:47.258Z,12.18
2019-04-04T07:35:51.010Z,12.35
2019-04-04T07:37:57.458Z,12.60
2019-04-04T07:40:03.134Z,13.28
2019-04-04T07:42:05.791Z,13.60
2019-04-04T07:44:09.533Z,13.70
2019-04-04T07:46:16.603Z,13.66
2019-04-04T07:48:18.795Z,13.60
2019-04-04T07:50:24.152Z,13.65
2019-04-04T07:52:28.038Z,14.70
2019-04-04T07:54:32.253Z,16.93
2019-04-04T07:56:35.979Z,18.74
2019-04-04T07:58:39.756Z,20.66
2019-04-04T08:00:43.501Z,22.28
2019-04-04T08:02:53.195Z,22.29
2019-04-04T08:04:57.028Z,21.19
2019-04-04T08:07:00.769Z,21.40
2019-04-04T08:09:06.660Z,22.32
2019-04-04T08:11:13.211Z,22.57
2019-04-04T08:13:15.906Z,23.79
2019-04-04T08:15:19.725Z,25.01
2019-04-04T08:17:23.551Z,25.99
2019-04-04T08:19:27.296Z,26.94
2019-04-04T08:21:31.027Z,27.63
2019-04-04T08:23:34.778Z,28.23
2019-04-04T08:25:38.624Z,28.55
2019-04-04T08:27:42.421Z,29.02
2019-04-04T08:29:46.185Z,29.28
2019-04-04T08:31:49.956Z,29.45
2019-04-04T08:33:53.698Z,29.57
2019-04-04T08:36:05.946Z,29.64
2019-04-04T08:38:02.955Z,29.79
2019-04-04T08:40:07.186Z,30.25
2019-04-04T08:42:10.940Z,30.51
2019-04-04T08:44:14.681Z,30.62
2019-04-04T08:46:20.022Z,30.71
2019-04-04T08:48:23.952Z,30.71
2019-04-04T08:50:27.726Z,30.66
2019-04-04T08:52:31.477Z,30.84
2019-04-04T08:54:35.240Z,31.01
2019-04-04T08:56:38.989Z,31.17
2019-04-04T08:58:43.011Z,31.34
2019-04-04T09:00:46.898Z,31.35
2019-04-04T09:02:50.626Z,31.44
2019-04-04T09:04:55.463Z,31.33
2019-04-04T09:06:59.195Z,31.11
2019-04-04T09:09:04.565Z,30.95
2019-04-04T09:11:09.338Z,30.98
2019-04-04T09:13:13.055Z,31.01
2019-04-04T09:15:17.061Z,29.98
2019-04-04T09:17:20.802Z,28.77
2019-04-04T09:19:24.537Z,27.80
2019-04-04T09:21:28.349Z,27.15
2019-04-04T09:23:32.093Z,26.13
2019-04-04T09:25:35.931Z,25.27
2019-04-04T09:27:39.809Z,24.31
2019-04-04T09:29:43.563Z,23.67
2019-04-04T09:31:47.390Z,23.26
2019-04-04T09:33:51.182Z,22.89
2019-04-04T09:35:54.930Z,23.05
2019-04-04T09:37:59.675Z,23.71
2019-04-04T09:40:03.547Z,24.35
2019-04-04T09:42:08.275Z,24.48
2019-04-04T09:44:12.032Z,25.16
2019-04-04T09:46:15.751Z,26.05
2019-04-04T09:48:19.492Z,26.73
2019-04-04T09:50:23.263Z,26.50
2019-04-04T09:52:27.071Z,26.33
2019-04-04T09:54:30.788Z,26.33
2019-04-04T09:56:34.527Z,26.42
2019-04-04T09:58:38.254Z,26.92
2019-04-04T10:00:42.358Z,26.98
2019-04-04T10:02:46.225Z,26.63
2019-04-04T10:04:49.971Z,26.92
2019-04-04T10:06:53.691Z,27.00
2019-04-04T10:08:57.420Z,26.83
2019-04-04T10:11:01.157Z,26.56
2019-04-04T10:13:05.068Z,26.40
2019-04-04T10:15:09.563Z,25.98
2019-04-04T10:17:13.300Z,25.94
2019-04-04T10:19:17.046Z,25.48
2019-04-04T10:21:20.795Z,24.99
2019-04-04T10:23:24.529Z,24.49
2019-04-04T10:25:28.279Z,24.12
2019-04-04T10:27:32.092Z,23.90
2019-04-04T10:29:35.901Z,23.48
2019-04-04T10:31:39.630Z,23.01
2019-04-04T10:33:43.367Z,22.09
2019-04-04T10:35:47.098Z,21.91
2019-04-04T10:37:50.852Z,21.91
2019-04-04T10:39:54.747Z,21.72
2019-04-04T10:41:58.484Z,21.40
2019-04-04T10:44:02.226Z,21.19
2019-04-04T10:46:06.126Z,20.93
2019-04-04T10:48:09.864Z,20.68
2019-04-04T10:50:14.695Z,20.51
2019-04-04T10:52:18.415Z,20.49
2019-04-04T10:54:22.161Z,20.45
2019-04-04T10:56:25.910Z,20.38
2019-04-04T10:58:29.661Z,20.30
2019-04-04T11:00:33.478Z,20.12
2019-04-04T11:02:37.298Z,20.06
2019-04-04T11:04:41.051Z,20.14
2019-04-04T11:06:44.801Z,20.11
2019-04-04T11:08:48.529Z,20.12
2019-04-04T11:10:52.342Z,20.12
2019-04-04T11:12:56.062Z,20.04
2019-04-04T11:14:59.815Z,19.78
2019-04-04T11:17:03.648Z,19.48
2019-04-04T11:19:09.730Z,19.26
2019-04-04T11:21:12.864Z,19.22
2019-04-04T11:23:16.600Z,19.13
2019-04-04T11:25:20.330Z,19.06
2019-04-04T11:27:24.072Z,18.84
2019-04-04T11:29:27.885Z,18.62
2019-04-04T11:31:31.690Z,18.47
2019-04-04T11:33:35.439Z,18.45
2019-04-04T11:35:39.204Z,18.54
2019-04-04T11:37:42.937Z,18.66
2019-04-04T11:39:54.648Z,18.76
2019-04-04T11:41:53.148Z,18.80
2019-04-04T11:43:56.878Z,18.95
2019-04-04T11:46:00.654Z,19.14
2019-04-04T11:48:04.539Z,19.39
2019-04-04T11:50:09.644Z,19.59
2019-04-04T11:52:13.393Z,19.66
2019-04-04T11:54:17.146Z,19.71
2019-04-04T11:56:20.895Z,19.60
2019-04-04T11:58:24.627Z,19.50
2019-04-04T12:00:31.875Z,19.28
2019-04-04T12:02:35.694Z,19.02
2019-04-04T12:04:39.437Z,18.93
2019-04-04T12:06:43.204Z,18.91
2019-04-04T12:08:46.955Z,18.94
2019-04-04T12:10:50.710Z,19.02
2019-04-04T12:12:54.425Z,19.27
2019-04-04T12:15:00.156Z,19.48
2019-04-04T12:17:04.009Z,19.67
2019-04-04T12:19:07.739Z,19.74
2019-04-04T12:21:11.565Z,19.77
2019-04-04T12:23:15.376Z,19.75
2019-04-04T12:25:19.180Z,19.63
2019-04-04T12:27:22.923Z,19.48
2019-04-04T12:29:26.684Z,19.34
2019-04-04T12:31:30.440Z,19.20
2019-04-04T12:33:34.191Z,19.07
2019-04-04T12:35:38.091Z,19.00
2019-04-04T12:37:41.970Z,19.07
2019-04-04T12:39:45.691Z,19.02
2019-04-04T12:41:49.505Z,18.84
2019-04-04T12:43:53.220Z,18.82
2019-04-04T12:45:56.994Z,18.82
2019-04-04T12:48:00.843Z,18.78
2019-04-04T12:50:05.446Z,18.63
2019-04-04T12:52:09.185Z,18.57
2019-04-04T12:54:12.922Z,18.54
2019-04-04T12:56:16.667Z,18.56
2019-04-04T12:58:20.504Z,18.49
2019-04-04T13:00:24.330Z,18.36
2019-04-04T13:02:28.077Z,18.28
2019-04-04T13:04:32.334Z,18.19
2019-04-04T13:06:36.136Z,18.05
2019-04-04T13:08:39.959Z,17.96
2019-04-04T13:10:43.757Z,17.95
2019-04-04T13:12:47.490Z,17.91
2019-04-04T13:14:51.237Z,17.82
2019-04-04T13:16:54.987Z,17.60
2019-04-04T13:18:58.744Z,17.41
2019-04-04T13:21:02.550Z,17.35
2019-04-04T13:23:06.367Z,17.32
2019-04-04T13:25:10.834Z,17.40
2019-04-04T13:27:17.569Z,17.41
2019-04-04T13:29:20.164Z,17.24
2019-04-04T13:31:23.956Z,17.07
2019-04-04T13:33:27.739Z,17.12
2019-04-04T13:35:31.482Z,17.25
2019-04-04T13:37:35.223Z,17.33
2019-04-04T13:39:38.947Z,17.27
2019-04-04T13:41:42.777Z,17.28
2019-04-04T13:43:46.479Z,17.50
2019-04-04T13:45:51.214Z,17.64
2019-04-04T13:47:54.974Z,17.72
2019-04-04T13:49:58.715Z,17.74
2019-04-04T13:52:02.558Z,17.63
2019-04-04T13:54:06.415Z,17.55
2019-04-04T13:56:10.217Z,17.34
2019-04-04T13:58:14.203Z,17.27
2019-04-04T14:00:18.578Z,17.25
2019-04-04T14:02:22.342Z,17.24
2019-04-04T14:04:26.060Z,17.24
2019-04-04T14:06:29.834Z,17.23
2019-04-04T14:08:33.563Z,17.12
2019-04-04T14:10:37.364Z,17.15
2019-04-04T14:12:41.098Z,17.07
2019-04-04T14:14:44.831Z,17.02
2019-04-04T14:16:48.567Z,16.85
2019-04-04T14:18:52.313Z,16.72
2019-04-04T14:21:03.317Z,16.53
2019-04-04T14:23:02.162Z,16.42
2019-04-04T14:25:06.206Z,16.35
2019-04-04T14:27:10.019Z,16.31
2019-04-04T14:29:26.616Z,16.25
2019-04-04T14:31:20.403Z,16.20
2019-04-04T14:33:24.144Z,16.15
2019-04-04T14:35:28.861Z,16.06
2019-04-04T14:37:32.735Z,15.91
2019-04-04T14:39:36.467Z,15.79
2019-04-04T14:41:40.219Z,15.69
2019-04-04T14:43:43.971Z,15.58
2019-04-04T14:45:47.710Z,15.53
2019-04-04T14:47:51.466Z,15.50
2019-04-04T14:49:55.182Z,15.47
2019-04-04T14:52:00.928Z,15.42
2019-04-04T14:54:04.725Z,15.45
2019-04-04T14:56:08.460Z,15.40
2019-04-04T14:58:12.199Z,15.39
2019-04-04T15:00:17.317Z,15.37
2019-04-04T15:02:21.278Z,15.35
2019-04-04T15:04:25.038Z,15.33
2019-04-04T15:06:28.810Z,15.22
2019-04-04T15:08:32.651Z,15.12
2019-04-04T15:10:38.867Z,14.97
2019-04-04T15:12:41.845Z,14.83
2019-04-04T15:14:45.616Z,14.69
2019-04-04T15:16:49.337Z,14.56
2019-04-04T15:18:53.079Z,14.46
2019-04-04T15:20:57.043Z,14.39
2019-04-04T15:23:00.896Z,14.36
2019-04-04T15:25:05.188Z,14.32
2019-04-04T15:27:08.700Z,14.33
2019-04-04T15:29:12.432Z,14.35
2019-04-04T15:31:16.169Z,14.30
2019-04-04T15:33:19.922Z,14.20
2019-04-04T15:35:23.666Z,14.10
2019-04-04T15:37:27.406Z,13.95
2019-04-04T15:39:31.127Z,13.80
2019-04-04T15:41:37.145Z,13.68
2019-04-04T15:43:40.400Z,13.64
2019-04-04T15:45:44.226Z,13.59
2019-04-04T15:47:47.991Z,13.62
2019-04-04T15:49:51.710Z,13.66
2019-04-04T15:51:55.453Z,13.76
2019-04-04T15:53:59.171Z,13.76
2019-04-04T15:56:02.983Z,13.81
2019-04-04T15:58:06.804Z,13.87
2019-04-04T16:00:11.287Z,13.88
2019-04-04T16:02:16.081Z,13.86
2019-04-04T16:04:19.892Z,13.83
2019-04-04T16:06:23.631Z,13.82
2019-04-04T16:08:27.448Z,13.81
2019-04-04T16:10:31.194Z,13.83
2019-04-04T16:12:34.954Z,13.82
2019-04-04T16:14:38.697Z,13.76
2019-04-04T16:16:42.434Z,13.68
2019-04-04T16:18:46.172Z,13.60
2019-04-04T16:20:49.984Z,13.57
2019-04-04T16:22:53.711Z,13.55
2019-04-04T16:24:57.429Z,13.53
2019-04-04T16:27:01.223Z,13.52
2019-04-04T16:29:04.966Z,13.52
2019-04-04T16:31:08.725Z,13.50
2019-04-04T16:33:13.472Z,13.44
2019-04-04T16:35:17.206Z,13.36
2019-04-04T16:37:20.947Z,13.31
2019-04-04T16:39:24.726Z,13.24
2019-04-04T16:41:28.457Z,13.17
2019-04-04T16:43:32.194Z,13.11
2019-04-04T16:45:35.911Z,13.03
2019-04-04T16:47:39.713Z,13.00
2019-04-04T16:49:43.519Z,13.02
2019-04-04T16:51:47.249Z,13.03
2019-04-04T16:53:50.960Z,13.00
2019-04-04T16:55:54.829Z,12.96
2019-04-04T16:57:58.569Z,12.94
2019-04-04T17:00:02.480Z,12.91
2019-04-04T17:02:06.281Z,12.88
2019-04-04T17:04:11.111Z,12.89
2019-04-04T17:06:14.840Z,12.90
2019-04-04T17:08:18.638Z,12.88
2019-04-04T17:10:22.374Z,12.80
2019-04-04T17:12:26.116Z,12.71
2019-04-04T17:14:29.858Z,12.63
2019-04-04T17:16:33.591Z,12.57
2019-04-04T17:18:38.335Z,12.56
2019-04-04T17:20:42.083Z,12.54
2019-04-04T17:22:45.909Z,12.53
2019-04-04T17:24:50.687Z,12.47
2019-04-04T17:26:57.277Z,12.43
2019-04-04T17:28:59.888Z,12.34
2019-04-04T17:31:06.639Z,12.17
2019-04-04T17:33:09.292Z,12.05
2019-04-04T17:35:13.243Z,11.98
2019-04-04T17:37:18.005Z,11.87
2019-04-04T17:39:21.948Z,11.77
2019-04-04T17:41:25.626Z,11.74
2019-04-04T17:43:29.418Z,11.71
2019-04-04T17:45:33.391Z,11.71
2019-04-04T17:47:38.569Z,11.73
2019-04-04T17:49:44.435Z,11.72
2019-04-04T17:51:48.192Z,11.70
2019-04-04T17:53:53.074Z,11.75
2019-04-04T17:55:58.599Z,11.76
2019-04-04T17:58:02.397Z,11.79
2019-04-04T18:00:07.695Z,11.79
2019-04-04T18:02:11.564Z,11.77
2019-04-04T18:04:15.304Z,11.70
2019-04-04T18:06:19.053Z,11.60
2019-04-04T18:08:22.770Z,11.55
2019-04-04T18:10:26.519Z,11.52
2019-04-04T18:12:39.715Z,11.49
2019-04-04T18:14:35.770Z,11.43
2019-04-04T18:16:39.574Z,11.40
2019-04-04T18:18:43.320Z,11.34
2019-04-04T18:20:47.073Z,11.29
2019-04-04T18:22:52.918Z,11.28
2019-04-04T18:24:56.679Z,11.30
2019-04-04T18:27:00.410Z,11.24
2019-04-04T18:29:04.223Z,11.22
2019-04-04T18:31:08.045Z,11.21
2019-04-04T18:33:11.810Z,11.15
2019-04-04T18:35:22.050Z,11.08
2019-04-04T18:37:25.786Z,10.97
2019-04-04T18:39:29.548Z,10.88
2019-04-04T18:41:33.261Z,10.79
2019-04-04T18:43:36.977Z,10.74
2019-04-04T18:45:40.869Z,10.69
2019-04-04T18:47:44.607Z,10.67
2019-04-04T18:49:48.383Z,10.67
2019-04-04T18:51:52.135Z,10.67
2019-04-04T18:53:55.850Z,10.68
2019-04-04T18:55:59.590Z,10.71
2019-04-04T18:58:03.318Z,10.70
2019-04-04T19:00:08.558Z,10.65
2019-04-04T19:02:12.357Z,10.60
2019-04-04T19:04:16.250Z,10.58
2019-04-04T19:06:20.127Z,10.56
2019-04-04T19:08:23.857Z,10.53
2019-04-04T19:10:27.691Z,10.51
2019-04-04T19:12:32.493Z,10.51
2019-04-04T19:14:36.213Z,10.49
2019-04-04T19:16:40.062Z,10.45
2019-04-04T19:18:45.853Z,10.40
2019-04-04T19:20:49.589Z,10.44
2019-04-04T19:22:53.305Z,10.43
2019-04-04T19:24:57.041Z,10.44
2019-04-04T19:27:00.867Z,10.44
2019-04-04T19:29:04.864Z,10.41
2019-04-04T19:31:08.761Z,10.39
2019-04-04T19:33:12.567Z,10.39
2019-04-04T19:35:17.128Z,10.40
2019-04-04T19:37:20.863Z,10.40
2019-04-04T19:39:24.652Z,10.39
2019-04-04T19:41:28.393Z,10.38
2019-04-04T19:43:32.193Z,10.38
2019-04-04T19:45:36.043Z,10.32
2019-04-04T19:47:39.842Z,10.24
2019-04-04T19:49:43.675Z,10.20
2019-04-04T19:51:47.399Z,10.16
2019-04-04T19:53:51.205Z,10.16
2019-04-04T19:55:55.112Z,10.16
2019-04-04T19:57:58.878Z,10.22
2019-04-04T20:00:02.583Z,10.22
2019-04-04T20:02:06.489Z,10.18
2019-04-04T20:04:10.222Z,10.13
2019-04-04T20:06:13.957Z,10.05
2019-04-04T20:08:17.685Z,9.99
2019-04-04T20:10:21.405Z,10.00
2019-04-04T20:12:25.143Z,9.98
2019-04-04T20:14:29.207Z,9.94
2019-04-04T20:16:33.057Z,9.86
2019-04-04T20:18:36.772Z,9.80
2019-04-04T20:20:40.515Z,9.75
2019-04-04T20:22:44.230Z,9.73
2019-04-04T20:24:48.049Z,9.62
2019-04-04T20:26:51.768Z,9.49
2019-04-04T20:28:55.494Z,9.39
2019-04-04T20:30:59.317Z,9.37
2019-04-04T20:33:03.043Z,9.36
2019-04-04T20:35:07.378Z,9.31
2019-04-04T20:37:11.089Z,9.23
2019-04-04T20:39:15.993Z,9.14
2019-04-04T20:41:19.745Z,9.08
2019-04-04T20:43:24.487Z,9.02
2019-04-04T20:45:28.301Z,9.00
2019-04-04T20:47:33.765Z,8.97
2019-04-04T20:49:37.726Z,8.97
2019-04-04T20:51:41.466Z,8.97
2019-04-04T20:53:45.204Z,8.92
2019-04-04T20:55:48.953Z,8.88
2019-04-04T20:57:52.693Z,8.90
2019-04-04T20:59:56.410Z,8.93
2019-04-04T21:02:00.157Z,8.97
2019-04-04T21:04:03.891Z,8.98
2019-04-04T21:06:07.715Z,9.00
2019-04-04T21:08:11.487Z,8.98
2019-04-04T21:10:15.846Z,8.94
2019-04-04T21:12:19.651Z,8.92
2019-04-04T21:14:23.389Z,8.90
2019-04-04T21:16:27.165Z,8.87
2019-04-04T21:18:30.913Z,8.88
2019-04-04T21:20:34.653Z,8.89
2019-04-04T21:22:38.490Z,8.90
2019-04-04T21:24:42.224Z,8.91
2019-04-04T21:26:45.958Z,8.91
2019-04-04T21:28:49.750Z,8.84
2019-04-04T21:30:53.545Z,8.75
2019-04-04T21:32:57.354Z,8.71
2019-04-04T21:35:01.113Z,8.68
2019-04-04T21:37:04.858Z,8.68
2019-04-04T21:39:08.871Z,8.68
2019-04-04T21:41:12.668Z,8.65
2019-04-04T21:43:16.390Z,8.63
2019-04-04T21:45:20.210Z,8.61
2019-04-04T21:47:23.950Z,8.59
2019-04-04T21:49:27.681Z,8.53
2019-04-04T21:51:31.430Z,8.49
2019-04-04T21:53:35.144Z,8.46
2019-04-04T21:55:38.910Z,8.37
2019-04-04T21:57:42.648Z,8.31
2019-04-04T21:59:46.379Z,8.27
2019-04-04T22:01:50.355Z,8.30
2019-04-04T22:03:54.133Z,8.32
2019-04-04T22:05:58.014Z,8.29
2019-04-04T22:08:01.740Z,8.28
2019-04-04T22:10:06.201Z,8.29
2019-04-04T22:12:09.947Z,8.30
2019-04-04T22:14:21.688Z,8.28
2019-04-04T22:16:19.426Z,8.24
2019-04-04T22:18:23.164Z,8.20
2019-04-04T22:20:26.950Z,8.16
2019-04-04T22:22:30.704Z,8.13
2019-04-04T22:24:34.453Z,8.15
2019-04-04T22:26:38.264Z,8.14
2019-04-04T22:28:42.039Z,8.18
2019-04-04T22:30:45.811Z,8.16
2019-04-04T22:32:49.578Z,8.12
2019-04-04T22:34:53.312Z,8.09
2019-04-04T22:36:57.079Z,8.08
2019-04-04T22:39:00.890Z,8.07
2019-04-04T22:41:04.775Z,8.07
2019-04-04T22:43:08.727Z,8.04
2019-04-04T22:45:12.562Z,8.01
2019-04-04T22:47:16.306Z,7.98
2019-04-04T22:49:20.113Z,7.95
2019-04-04T22:51:23.843Z,7.93
2019-04-04T22:53:27.577Z,7.90
2019-04-04T22:55:31.311Z,7.88
2019-04-04T22:57:35.048Z,7.86
2019-04-04T22:59:38.764Z,7.82
2019-04-04T23:01:42.509Z,7.79
2019-04-04T23:03:46.243Z,7.77
2019-04-04T23:05:49.977Z,7.73
2019-04-04T23:07:53.795Z,7.70
2019-04-04T23:09:57.524Z,7.69
2019-04-04T23:12:02.264Z,7.71
2019-04-04T23:14:06.098Z,7.72
2019-04-04T23:16:09.847Z,7.72
2019-04-04T23:18:13.650Z,7.69
2019-04-04T23:20:17.413Z,7.71
2019-04-04T23:22:21.155Z,7.70
2019-04-04T23:24:24.896Z,7.67
2019-04-04T23:26:28.654Z,7.64
2019-04-04T23:28:32.405Z,7.61
2019-04-04T23:30:36.135Z,7.60
2019-04-04T23:32:39.906Z,7.57
2019-04-04T23:34:43.630Z,7.57
2019-04-04T23:36:47.437Z,7.57
2019-04-04T23:38:51.163Z,7.59
2019-04-04T23:40:55.886Z,7.61
2019-04-04T23:42:59.649Z,7.59
2019-04-04T23:45:03.474Z,7.56
2019-04-04T23:47:07.195Z,7.54
2019-04-04T23:49:10.928Z,7.56
2019-04-04T23:51:14.654Z,7.55
2019-04-04T23:53:18.481Z,7.52
2019-04-04T23:55:22.215Z,7.53
2019-04-04T23:57:25.951Z,7.54
2019-04-04T23:59:29.721Z,7.51
